createdAt,value
2018-10-11T00:00:10.568Z,0
2018-10-11T00:01:12.250Z,0
2018-10-11T00:02:13.652Z,0
2018-10-11T00:03:15.152Z,0
2018-10-11T00:04:16.559Z,0
2018-10-11T00:05:18.238Z,0
2018-10-11T00:06:19.633Z,0
2018-10-11T00:07:21.307Z,0
2018-10-11T00:08:22.711Z,0
2018-10-11T00:09:24.186Z,0
2018-10-11T00:10:25.599Z,0
2018-10-11T00:11:27.006Z,0
2018-10-11T00:12:28.509Z,0
2018-10-11T00:13:29.913Z,0
2018-10-11T00:14:31.311Z,0
2018-10-11T00:15:32.828Z,0
2018-10-11T00:16:34.237Z,0
2018-10-11T00:17:35.663Z,0
2018-10-11T00:18:37.356Z,0
2018-10-11T00:19:38.797Z,0
2018-10-11T00:20:40.209Z,0
2018-10-11T00:21:41.980Z,0
2018-10-11T00:22:43.389Z,0
2018-10-11T00:23:44.965Z,0
2018-10-11T00:24:46.371Z,0
2018-10-11T00:25:47.784Z,0
2018-10-11T00:26:49.286Z,0
2018-10-11T00:27:50.690Z,0
2018-10-11T00:28:52.090Z,0
2018-10-11T00:29:53.607Z,0
2018-10-11T00:30:55.011Z,0
2018-10-11T00:31:56.453Z,0
2018-10-11T00:32:57.928Z,0
2018-10-11T00:33:59.331Z,0
2018-10-11T00:35:00.734Z,0
2018-10-11T00:36:02.250Z,0
2018-10-11T00:37:03.648Z,0
2018-10-11T00:38:05.131Z,0
2018-10-11T00:39:06.543Z,0
2018-10-11T00:40:08.217Z,0
2018-10-11T00:41:09.635Z,0
2018-10-11T00:42:11.331Z,0
2018-10-11T00:43:12.736Z,0
2018-10-11T00:44:14.411Z,0
2018-10-11T00:45:15.820Z,0
2018-10-11T00:46:17.503Z,0
2018-10-11T00:47:18.905Z,0
2018-10-11T00:48:20.558Z,0
2018-10-11T00:49:21.970Z,0
2018-10-11T00:50:23.440Z,0
2018-10-11T00:51:24.874Z,0
2018-10-11T00:52:26.525Z,0
2018-10-11T00:53:27.948Z,0
2018-10-11T00:54:29.609Z,0
2018-10-11T00:55:31.016Z,0
2018-10-11T00:56:32.488Z,0
2018-10-11T00:57:33.908Z,0
2018-10-11T00:58:35.604Z,0
2018-10-11T00:59:37.006Z,0
2018-10-11T01:00:38.663Z,0
2018-10-11T01:01:40.256Z,0
2018-10-11T01:02:41.750Z,0
2018-10-11T01:03:43.171Z,0
2018-10-11T01:04:44.864Z,0
2018-10-11T01:05:46.264Z,0
2018-10-11T01:06:47.691Z,0
2018-10-11T01:07:49.381Z,0
2018-10-11T01:08:50.786Z,0
2018-10-11T01:09:52.225Z,0
2018-10-11T01:10:53.681Z,0
2018-10-11T01:11:55.089Z,0
2018-10-11T01:12:56.563Z,0
2018-10-11T01:13:58.086Z,0
2018-10-11T01:14:59.648Z,0
2018-10-11T01:16:01.058Z,0
2018-10-11T01:17:02.461Z,0
2018-10-11T01:18:03.972Z,0
2018-10-11T01:19:05.378Z,0
2018-10-11T01:20:06.777Z,0
2018-10-11T01:21:08.291Z,0
2018-10-11T01:22:09.691Z,0
2018-10-11T01:23:11.100Z,0
2018-10-11T01:24:12.612Z,0
2018-10-11T01:25:14.030Z,0
2018-10-11T01:26:15.420Z,0
2018-10-11T01:27:16.949Z,0
2018-10-11T01:28:18.358Z,0
2018-10-11T01:29:20.020Z,0
2018-10-11T01:30:21.433Z,0
2018-10-11T01:31:22.829Z,0
2018-10-11T01:32:24.341Z,0
2018-10-11T01:33:25.823Z,0
2018-10-11T01:34:27.226Z,0
2018-10-11T01:35:28.868Z,0
2018-10-11T01:36:30.267Z,0
2018-10-11T01:37:31.672Z,0
2018-10-11T01:38:33.219Z,0
2018-10-11T01:39:34.593Z,0
2018-10-11T01:40:35.994Z,0
2018-10-11T01:41:37.562Z,0
2018-10-11T01:42:38.962Z,0
2018-10-11T01:43:40.371Z,0
2018-10-11T01:44:42.037Z,0
2018-10-11T01:45:43.440Z,0
2018-10-11T01:46:44.846Z,0
2018-10-11T01:47:46.357Z,0
2018-10-11T01:48:47.777Z,0
2018-10-11T01:49:49.238Z,0
2018-10-11T01:50:50.649Z,0
2018-10-11T01:51:52.066Z,0
2018-10-11T01:52:53.561Z,0
2018-10-11T01:53:55.073Z,0
2018-10-11T01:54:56.478Z,0
2018-10-11T01:55:58.070Z,0
2018-10-11T01:56:59.512Z,0
2018-10-11T01:58:00.912Z,0
2018-10-11T01:59:02.433Z,0
2018-10-11T02:00:03.836Z,0
2018-10-11T02:01:05.241Z,0
2018-10-11T02:02:06.730Z,0
2018-10-11T02:03:08.185Z,0
2018-10-11T02:04:09.592Z,0
2018-10-11T02:05:11.056Z,0
2018-10-11T02:06:12.454Z,0
2018-10-11T02:07:13.857Z,0
2018-10-11T02:08:15.374Z,0
2018-10-11T02:09:16.819Z,0
2018-10-11T02:10:18.270Z,0
2018-10-11T02:11:19.673Z,0
2018-10-11T02:12:21.079Z,0
2018-10-11T02:13:22.584Z,0
2018-10-11T02:14:23.980Z,0
2018-10-11T02:15:25.387Z,0
2018-10-11T02:16:26.897Z,0
2018-10-11T02:17:28.327Z,0
2018-10-11T02:18:29.984Z,0
2018-10-11T02:19:31.380Z,0
2018-10-11T02:20:32.862Z,0
2018-10-11T02:21:34.264Z,0
2018-10-11T02:22:35.684Z,0
2018-10-11T02:23:37.182Z,0
2018-10-11T02:24:38.612Z,0
2018-10-11T02:25:40.009Z,0
2018-10-11T02:26:41.503Z,0
2018-10-11T02:27:42.907Z,0
2018-10-11T02:28:44.384Z,0
2018-10-11T02:29:45.787Z,0
2018-10-11T02:30:47.351Z,0
2018-10-11T02:31:48.757Z,0
2018-10-11T02:32:50.147Z,0
2018-10-11T02:33:51.789Z,0
2018-10-11T02:34:53.257Z,0
2018-10-11T02:35:54.676Z,0
2018-10-11T02:36:56.383Z,0
2018-10-11T02:37:57.744Z,0
2018-10-11T02:38:59.161Z,0
2018-10-11T02:40:00.641Z,0
2018-10-11T02:41:02.049Z,0
2018-10-11T02:42:03.477Z,0
2018-10-11T02:43:04.981Z,0
2018-10-11T02:44:06.389Z,0
2018-10-11T02:45:08.046Z,0
2018-10-11T02:46:09.450Z,0
2018-10-11T02:47:10.935Z,0
2018-10-11T02:48:12.337Z,0
2018-10-11T02:49:13.808Z,0
2018-10-11T02:50:15.271Z,0
2018-10-11T02:51:16.896Z,0
2018-10-11T02:52:18.256Z,0
2018-10-11T02:53:19.663Z,0
2018-10-11T02:54:21.210Z,0
2018-10-11T02:55:22.615Z,0
2018-10-11T02:56:24.015Z,0
2018-10-11T02:57:25.538Z,0
2018-10-11T02:58:26.941Z,0
2018-10-11T02:59:28.344Z,0
2018-10-11T03:00:29.856Z,0
2018-10-11T03:01:31.257Z,0
2018-10-11T03:02:32.663Z,0
2018-10-11T03:03:34.185Z,0
2018-10-11T03:04:35.583Z,0
2018-10-11T03:05:37.064Z,0
2018-10-11T03:06:38.469Z,0
2018-10-11T03:07:39.947Z,0
2018-10-11T03:08:41.368Z,0
2018-10-11T03:09:43.035Z,0
2018-10-11T03:10:44.433Z,0
2018-10-11T03:11:46.390Z,0
2018-10-11T03:12:47.802Z,0
2018-10-11T03:13:49.203Z,0
2018-10-11T03:14:50.871Z,0
2018-10-11T03:15:52.274Z,0
2018-10-11T03:16:53.674Z,0
2018-10-11T03:17:55.178Z,0
2018-10-11T03:18:56.572Z,0
2018-10-11T03:19:58.066Z,0
2018-10-11T03:20:59.462Z,0
2018-10-11T03:22:00.966Z,0
2018-10-11T03:23:02.364Z,0
2018-10-11T03:24:03.969Z,0
2018-10-11T03:25:05.370Z,0
2018-10-11T03:26:06.896Z,0
2018-10-11T03:27:08.337Z,0
2018-10-11T03:28:10.008Z,0
2018-10-11T03:29:11.449Z,0
2018-10-11T03:30:13.070Z,0
2018-10-11T03:31:14.463Z,0
2018-10-11T03:32:16.324Z,0
2018-10-11T03:33:17.729Z,0
2018-10-11T03:34:19.162Z,0
2018-10-11T03:35:20.676Z,0
2018-10-11T03:36:22.078Z,0
2018-10-11T03:37:23.479Z,0
2018-10-11T03:38:24.999Z,0
2018-10-11T03:39:26.401Z,0
2018-10-11T03:40:27.806Z,0
2018-10-11T03:41:29.340Z,0
2018-10-11T03:42:30.740Z,0
2018-10-11T03:43:32.145Z,0
2018-10-11T03:44:33.638Z,0
2018-10-11T03:45:35.041Z,0
2018-10-11T03:46:36.554Z,0
2018-10-11T03:47:37.920Z,0
2018-10-11T03:48:39.401Z,0
2018-10-11T03:49:40.807Z,0
2018-10-11T03:50:42.282Z,0
2018-10-11T03:51:43.684Z,0
2018-10-11T03:52:45.161Z,0
2018-10-11T03:53:46.564Z,0
2018-10-11T03:54:48.044Z,0
2018-10-11T03:55:49.442Z,0
2018-10-11T03:56:50.925Z,0
2018-10-11T03:57:52.328Z,0
2018-10-11T03:58:53.760Z,0
2018-10-11T03:59:55.250Z,0
2018-10-11T04:00:56.648Z,0
2018-10-11T04:01:58.049Z,0
2018-10-11T04:02:59.565Z,0
2018-10-11T04:04:00.969Z,0
2018-10-11T04:05:02.369Z,0
2018-10-11T04:06:03.891Z,0
2018-10-11T04:07:06.017Z,0
2018-10-11T04:08:08.341Z,0
2018-10-11T04:09:11.512Z,0
2018-10-11T04:10:13.447Z,0
2018-10-11T04:11:15.443Z,0
2018-10-11T04:12:17.417Z,0
2018-10-11T04:13:18.816Z,0
2018-10-11T04:14:20.214Z,0
2018-10-11T04:15:21.771Z,0
2018-10-11T04:16:23.168Z,0
2018-10-11T04:17:24.649Z,0
2018-10-11T04:18:26.072Z,0
2018-10-11T04:19:27.448Z,0
2018-10-11T04:20:28.969Z,0
2018-10-11T04:21:30.368Z,0
2018-10-11T04:22:31.770Z,0
2018-10-11T04:23:33.291Z,0
2018-10-11T04:24:34.751Z,0
2018-10-11T04:25:36.152Z,0
2018-10-11T04:26:37.612Z,0
2018-10-11T04:27:39.014Z,0
2018-10-11T04:28:40.422Z,0
2018-10-11T04:29:41.933Z,0
2018-10-11T04:30:43.339Z,0
2018-10-11T04:31:44.737Z,0
2018-10-11T04:32:46.254Z,0
2018-10-11T04:33:47.658Z,0
2018-10-11T04:34:49.057Z,0
2018-10-11T04:35:50.543Z,0
2018-10-11T04:36:51.940Z,0
2018-10-11T04:37:53.339Z,0
2018-10-11T04:38:54.857Z,0
2018-10-11T04:39:56.262Z,0
2018-10-11T04:40:57.666Z,0
2018-10-11T04:41:59.186Z,0
2018-10-11T04:43:00.649Z,0
2018-10-11T04:44:01.988Z,0
2018-10-11T04:45:03.509Z,0
2018-10-11T04:46:04.909Z,0
2018-10-11T04:47:06.311Z,0
2018-10-11T04:48:07.871Z,0
2018-10-11T04:49:09.271Z,0
2018-10-11T04:50:10.669Z,0
2018-10-11T04:51:12.150Z,0
2018-10-11T04:52:13.554Z,0
2018-10-11T04:53:14.963Z,0
2018-10-11T04:54:16.473Z,0
2018-10-11T04:55:17.968Z,0
2018-10-11T04:56:19.558Z,0
2018-10-11T04:57:20.958Z,0
2018-10-11T04:58:22.441Z,0
2018-10-11T04:59:23.840Z,0
2018-10-11T05:00:25.316Z,0
2018-10-11T05:01:26.724Z,0
2018-10-11T05:02:28.203Z,0
2018-10-11T05:03:29.607Z,0
2018-10-11T05:04:31.000Z,0
2018-10-11T05:05:32.522Z,0
2018-10-11T05:06:33.926Z,0
2018-10-11T05:07:35.327Z,0
2018-10-11T05:08:36.844Z,0
2018-10-11T05:09:38.250Z,0
2018-10-11T05:10:39.723Z,0
2018-10-11T05:11:41.121Z,0
2018-10-11T05:12:42.614Z,0
2018-10-11T05:13:44.019Z,0
2018-10-11T05:14:45.485Z,0
2018-10-11T05:15:46.893Z,0
2018-10-11T05:16:48.373Z,0
2018-10-11T05:17:49.768Z,0
2018-10-11T05:18:51.246Z,0
2018-10-11T05:19:52.652Z,0
2018-10-11T05:20:55.154Z,0
2018-10-11T05:21:56.559Z,0
2018-10-11T05:22:58.037Z,4
2018-10-11T05:23:59.529Z,4
2018-10-11T05:25:00.927Z,0
2018-10-11T05:26:02.386Z,0
2018-10-11T05:27:03.757Z,4
2018-10-11T05:28:05.155Z,0
2018-10-11T05:29:06.678Z,4
2018-10-11T05:30:08.186Z,4
2018-10-11T05:31:09.632Z,4
2018-10-11T05:32:11.241Z,4
2018-10-11T05:33:12.605Z,8
2018-10-11T05:34:14.016Z,8
2018-10-11T05:35:15.656Z,8
2018-10-11T05:36:17.062Z,12
2018-10-11T05:37:18.461Z,12
2018-10-11T05:38:20.136Z,12
2018-10-11T05:39:21.455Z,12
2018-10-11T05:40:22.862Z,16
2018-10-11T05:41:24.379Z,16
2018-10-11T05:42:25.783Z,20
2018-10-11T05:43:27.186Z,24
2018-10-11T05:44:28.792Z,24
2018-10-11T05:45:30.070Z,24
2018-10-11T05:46:31.574Z,32
2018-10-11T05:47:32.977Z,32
2018-10-11T05:48:34.462Z,32
2018-10-11T05:49:35.860Z,40
2018-10-11T05:50:37.264Z,44
2018-10-11T05:51:38.777Z,44
2018-10-11T05:52:40.184Z,48
2018-10-11T05:53:41.596Z,52
2018-10-11T05:54:43.310Z,60
2018-10-11T05:55:44.712Z,60
2018-10-11T05:56:46.243Z,64
2018-10-11T05:57:47.596Z,72
2018-10-11T05:58:49.066Z,76
2018-10-11T05:59:50.475Z,76
2018-10-11T06:00:51.956Z,84
2018-10-11T06:01:53.358Z,88
2018-10-11T06:02:54.839Z,96
2018-10-11T06:03:56.237Z,100
2018-10-11T06:04:57.717Z,104
2018-10-11T06:05:59.122Z,108
2018-10-11T06:07:00.606Z,112
2018-10-11T06:08:02.001Z,120
2018-10-11T06:09:03.409Z,128
2018-10-11T06:10:04.921Z,132
2018-10-11T06:11:06.328Z,136
2018-10-11T06:12:07.774Z,144
2018-10-11T06:13:09.247Z,148
2018-10-11T06:14:10.656Z,156
2018-10-11T06:15:12.059Z,160
2018-10-11T06:16:13.565Z,164
2018-10-11T06:17:14.972Z,172
2018-10-11T06:18:16.445Z,176
2018-10-11T06:19:17.849Z,184
2018-10-11T06:20:19.324Z,188
2018-10-11T06:21:20.736Z,196
2018-10-11T06:22:22.204Z,200
2018-10-11T06:23:23.608Z,204
2018-10-11T06:24:25.085Z,212
2018-10-11T06:25:26.490Z,216
2018-10-11T06:26:27.968Z,224
2018-10-11T06:27:29.372Z,228
2018-10-11T06:28:30.847Z,232
2018-10-11T06:29:32.250Z,236
2018-10-11T06:30:33.655Z,244
2018-10-11T06:31:35.170Z,248
2018-10-11T06:32:36.570Z,252
2018-10-11T06:33:37.974Z,260
2018-10-11T06:34:39.492Z,264
2018-10-11T06:35:40.903Z,272
2018-10-11T06:36:42.478Z,276
2018-10-11T06:37:43.776Z,284
2018-10-11T06:38:45.252Z,292
2018-10-11T06:39:46.658Z,292
2018-10-11T06:40:48.077Z,300
2018-10-11T06:41:49.522Z,308
2018-10-11T06:42:50.892Z,312
2018-10-11T06:43:52.298Z,316
2018-10-11T06:44:53.709Z,320
2018-10-11T06:45:55.117Z,328
2018-10-11T06:46:56.516Z,332
2018-10-11T06:47:58.020Z,336
2018-10-11T06:48:59.415Z,340
2018-10-11T06:50:00.908Z,348
2018-10-11T06:51:02.363Z,356
2018-10-11T06:52:04.144Z,360
2018-10-11T06:53:06.008Z,368
2018-10-11T06:54:07.414Z,372
2018-10-11T06:55:08.916Z,376
2018-10-11T06:56:10.321Z,376
2018-10-11T06:57:11.802Z,384
2018-10-11T06:58:13.211Z,384
2018-10-11T06:59:14.682Z,388
2018-10-11T07:00:16.085Z,392
2018-10-11T07:01:17.489Z,400
2018-10-11T07:02:19.001Z,404
2018-10-11T07:03:20.411Z,408
2018-10-11T07:04:21.812Z,412
2018-10-11T07:05:23.326Z,416
2018-10-11T07:06:24.724Z,420
2018-10-11T07:07:26.205Z,428
2018-10-11T07:08:27.611Z,432
2018-10-11T07:09:29.085Z,436
2018-10-11T07:10:30.491Z,444
2018-10-11T07:11:31.965Z,448
2018-10-11T07:12:33.372Z,452
2018-10-11T07:13:34.862Z,456
2018-10-11T07:14:36.288Z,460
2018-10-11T07:15:37.700Z,468
2018-10-11T07:16:39.166Z,472
2018-10-11T07:17:40.572Z,480
2018-10-11T07:18:41.979Z,488
2018-10-11T07:19:43.487Z,492
2018-10-11T07:20:44.889Z,496
2018-10-11T07:21:46.296Z,500
2018-10-11T07:22:47.811Z,504
2018-10-11T07:23:49.215Z,508
2018-10-11T07:24:50.621Z,512
2018-10-11T07:25:52.149Z,516
2018-10-11T07:26:53.538Z,524
2018-10-11T07:27:54.949Z,532
2018-10-11T07:28:56.363Z,536
2018-10-11T07:29:57.770Z,544
2018-10-11T07:30:59.202Z,544
2018-10-11T07:32:00.777Z,548
2018-10-11T07:33:02.182Z,548
2018-10-11T07:34:03.596Z,548
2018-10-11T07:35:05.157Z,556
2018-10-11T07:36:06.507Z,560
2018-10-11T07:37:07.917Z,564
2018-10-11T07:38:09.419Z,568
2018-10-11T07:39:10.826Z,572
2018-10-11T07:40:12.281Z,572
2018-10-11T07:41:13.741Z,580
2018-10-11T07:42:15.147Z,588
2018-10-11T07:43:16.591Z,592
2018-10-11T07:44:17.999Z,600
2018-10-11T07:45:19.405Z,608
2018-10-11T07:46:20.815Z,612
2018-10-11T07:47:22.227Z,624
2018-10-11T07:48:23.632Z,624
2018-10-11T07:49:25.052Z,632
2018-10-11T07:50:26.466Z,636
2018-10-11T07:51:27.941Z,640
2018-10-11T07:52:29.346Z,640
2018-10-11T07:53:30.831Z,648
2018-10-11T07:54:32.240Z,660
2018-10-11T07:55:33.706Z,664
2018-10-11T07:56:35.108Z,668
2018-10-11T07:57:36.584Z,676
2018-10-11T07:58:37.990Z,672
2018-10-11T07:59:39.844Z,672
2018-10-11T08:00:41.325Z,680
2018-10-11T08:01:42.707Z,688
2018-10-11T08:02:44.204Z,696
2018-10-11T08:03:45.606Z,704
2018-10-11T08:04:47.008Z,704
2018-10-11T08:05:48.520Z,704
2018-10-11T08:06:49.933Z,712
2018-10-11T08:07:51.339Z,724
2018-10-11T08:08:52.853Z,728
2018-10-11T08:09:54.247Z,728
2018-10-11T08:10:55.771Z,728
2018-10-11T08:11:57.260Z,736
2018-10-11T08:12:58.571Z,732
2018-10-11T08:14:00.042Z,740
2018-10-11T08:15:01.451Z,744
2018-10-11T08:16:02.978Z,752
2018-10-11T08:17:04.570Z,760
2018-10-11T08:18:05.731Z,764
2018-10-11T08:19:07.288Z,768
2018-10-11T08:20:08.692Z,772
2018-10-11T08:21:10.061Z,768
2018-10-11T08:22:11.567Z,776
2018-10-11T08:23:12.974Z,776
2018-10-11T08:24:14.439Z,780
2018-10-11T08:25:16.075Z,780
2018-10-11T08:26:17.675Z,784
2018-10-11T08:27:18.785Z,788
2018-10-11T08:28:20.415Z,784
2018-10-11T08:29:21.821Z,796
2018-10-11T08:30:23.233Z,808
2018-10-11T08:31:24.736Z,816
2018-10-11T08:32:26.203Z,832
2018-10-11T08:33:27.507Z,840
2018-10-11T08:34:29.061Z,864
2018-10-11T08:35:30.468Z,872
2018-10-11T08:36:31.879Z,860
2018-10-11T08:37:33.458Z,856
2018-10-11T08:38:34.849Z,860
2018-10-11T08:39:36.261Z,892
2018-10-11T08:40:37.666Z,940
2018-10-11T08:41:39.074Z,924
2018-10-11T08:42:40.583Z,944
2018-10-11T08:43:42.001Z,1056
2018-10-11T08:44:43.411Z,1568
2018-10-11T08:45:44.906Z,1620
2018-10-11T08:46:46.311Z,1640
2018-10-11T08:47:47.720Z,1384
2018-10-11T08:48:49.229Z,1048
2018-10-11T08:49:50.635Z,900
2018-10-11T08:50:52.112Z,912
2018-10-11T08:51:53.549Z,920
2018-10-11T08:52:54.957Z,924
2018-10-11T08:53:56.361Z,916
2018-10-11T08:54:57.871Z,912
2018-10-11T08:55:59.331Z,916
2018-10-11T08:57:00.684Z,924
2018-10-11T08:58:02.191Z,932
2018-10-11T08:59:03.624Z,932
2018-10-11T09:00:04.972Z,928
2018-10-11T09:01:06.382Z,932
2018-10-11T09:02:07.787Z,936
2018-10-11T09:03:09.213Z,932
2018-10-11T09:04:10.663Z,924
2018-10-11T09:05:12.036Z,924
2018-10-11T09:06:13.442Z,916
2018-10-11T09:07:14.953Z,904
2018-10-11T09:08:16.360Z,904
2018-10-11T09:09:17.833Z,896
2018-10-11T09:10:19.239Z,892
2018-10-11T09:11:20.797Z,888
2018-10-11T09:12:22.126Z,884
2018-10-11T09:13:23.528Z,880
2018-10-11T09:14:25.035Z,888
2018-10-11T09:15:26.436Z,896
2018-10-11T09:16:27.839Z,892
2018-10-11T09:17:29.437Z,884
2018-10-11T09:18:30.762Z,876
2018-10-11T09:19:32.191Z,884
2018-10-11T09:20:33.691Z,884
2018-10-11T09:21:35.099Z,880
2018-10-11T09:22:36.503Z,872
2018-10-11T09:23:38.000Z,888
2018-10-11T09:24:39.783Z,888
2018-10-11T09:25:41.355Z,888
2018-10-11T09:26:42.657Z,892
2018-10-11T09:27:44.069Z,884
2018-10-11T09:28:45.618Z,892
2018-10-11T09:29:47.021Z,896
2018-10-11T09:30:49.100Z,892
2018-10-11T09:31:50.549Z,896
2018-10-11T09:32:51.957Z,892
2018-10-11T09:33:53.869Z,888
2018-10-11T09:34:55.224Z,896
2018-10-11T09:35:56.722Z,908
2018-10-11T09:36:58.125Z,892
2018-10-11T09:37:59.687Z,892
2018-10-11T09:39:01.041Z,900
2018-10-11T09:40:02.486Z,916
2018-10-11T09:41:03.903Z,920
2018-10-11T09:42:05.365Z,912
2018-10-11T09:43:06.820Z,916
2018-10-11T09:44:08.247Z,928
2018-10-11T09:45:09.648Z,956
2018-10-11T09:46:11.125Z,968
2018-10-11T09:47:12.535Z,968
2018-10-11T09:48:14.318Z,968
2018-10-11T09:49:15.860Z,944
2018-10-11T09:50:17.265Z,932
2018-10-11T09:51:19.058Z,936
2018-10-11T09:52:20.965Z,916
2018-10-11T09:53:22.375Z,916
2018-10-11T09:54:23.798Z,916
2018-10-11T09:55:25.326Z,928
2018-10-11T09:56:26.733Z,964
2018-10-11T09:57:28.152Z,1016
2018-10-11T09:58:29.642Z,1064
2018-10-11T09:59:31.050Z,1084
2018-10-11T10:00:32.457Z,1112
2018-10-11T10:01:33.966Z,1148
2018-10-11T10:02:35.379Z,1140
2018-10-11T10:03:36.788Z,1072
2018-10-11T10:04:38.285Z,980
2018-10-11T10:05:39.695Z,972
2018-10-11T10:06:41.092Z,980
2018-10-11T10:07:42.608Z,1156
2018-10-11T10:08:44.020Z,1256
2018-10-11T10:09:46.288Z,904
2018-10-11T10:10:47.656Z,844
2018-10-11T10:11:49.567Z,848
2018-10-11T10:12:50.969Z,844
2018-10-11T10:13:52.481Z,844
2018-10-11T10:14:53.891Z,848
2018-10-11T10:15:55.361Z,872
2018-10-11T10:16:56.771Z,860
2018-10-11T10:17:58.240Z,852
2018-10-11T10:18:59.646Z,868
2018-10-11T10:20:01.137Z,932
2018-10-11T10:21:02.582Z,928
2018-10-11T10:22:04.003Z,944
2018-10-11T10:23:05.416Z,984
2018-10-11T10:24:06.820Z,1044
2018-10-11T10:25:08.237Z,1024
2018-10-11T10:26:09.655Z,1116
2018-10-11T10:27:11.152Z,1140
2018-10-11T10:28:12.652Z,1144
2018-10-11T10:29:14.061Z,1116
2018-10-11T10:30:15.526Z,1080
2018-10-11T10:31:16.944Z,1032
2018-10-11T10:32:18.456Z,1084
2018-10-11T10:33:19.867Z,1108
2018-10-11T10:34:21.692Z,1132
2018-10-11T10:35:23.143Z,1064
2018-10-11T10:36:24.552Z,1012
2018-10-11T10:37:25.965Z,988
2018-10-11T10:38:27.465Z,1052
2018-10-11T10:39:28.873Z,1056
2018-10-11T10:40:30.290Z,1084
2018-10-11T10:41:31.808Z,1084
2018-10-11T10:42:33.220Z,1068
2018-10-11T10:43:34.627Z,1024
2018-10-11T10:44:36.104Z,984
2018-10-11T10:45:37.527Z,988
2018-10-11T10:46:38.987Z,984
2018-10-11T10:47:40.391Z,992
2018-10-11T10:48:41.870Z,944
2018-10-11T10:49:43.268Z,932
2018-10-11T10:50:44.746Z,992
2018-10-11T10:51:46.175Z,1032
2018-10-11T10:52:48.006Z,1004
2018-10-11T10:53:49.421Z,1096
2018-10-11T10:54:51.303Z,1116
2018-10-11T10:55:52.710Z,1180
2018-10-11T10:56:54.213Z,1212
2018-10-11T10:57:55.640Z,1228
2018-10-11T10:58:57.093Z,1216
2018-10-11T10:59:58.508Z,1256
2018-10-11T11:00:59.972Z,1312
2018-10-11T11:02:01.381Z,1380
2018-10-11T11:03:02.854Z,1388
2018-10-11T11:04:04.291Z,1332
2018-10-11T11:05:05.699Z,1276
2018-10-11T11:06:07.175Z,1236
2018-10-11T11:07:08.590Z,1172
2018-10-11T11:08:10.001Z,1104
2018-10-11T11:09:11.502Z,1040
2018-10-11T11:10:12.907Z,992
2018-10-11T11:11:14.411Z,924
2018-10-11T11:12:15.819Z,920
2018-10-11T11:13:17.314Z,948
2018-10-11T11:14:18.670Z,976
2018-10-11T11:15:20.145Z,976
2018-10-11T11:16:21.957Z,964
2018-10-11T11:17:23.432Z,944
2018-10-11T11:18:24.842Z,904
2018-10-11T11:19:26.235Z,880
2018-10-11T11:20:27.754Z,876
2018-10-11T11:21:29.167Z,892
2018-10-11T11:22:30.578Z,916
2018-10-11T11:23:32.078Z,944
2018-10-11T11:24:33.867Z,944
2018-10-11T11:25:35.498Z,964
2018-10-11T11:26:36.906Z,916
2018-10-11T11:27:38.555Z,904
2018-10-11T11:28:39.963Z,916
2018-10-11T11:29:41.373Z,912
2018-10-11T11:30:42.976Z,936
2018-10-11T11:31:44.431Z,944
2018-10-11T11:32:45.793Z,932
2018-10-11T11:33:47.302Z,924
2018-10-11T11:34:48.710Z,940
2018-10-11T11:35:50.180Z,964
2018-10-11T11:36:51.595Z,992
2018-10-11T11:37:53.062Z,1016
2018-10-11T11:38:54.474Z,1008
2018-10-11T11:39:55.966Z,1000
2018-10-11T11:40:57.383Z,1008
2018-10-11T11:41:59.203Z,972
2018-10-11T11:43:00.612Z,980
2018-10-11T11:44:02.020Z,936
2018-10-11T11:45:03.941Z,956
2018-10-11T11:46:05.344Z,944
2018-10-11T11:47:06.753Z,908
2018-10-11T11:48:09.330Z,872
2018-10-11T11:49:10.723Z,872
2018-10-11T11:50:12.130Z,884
2018-10-11T11:51:13.636Z,876
2018-10-11T11:52:15.055Z,856
2018-10-11T11:53:16.518Z,844
2018-10-11T11:54:17.961Z,816
2018-10-11T11:55:19.360Z,856
2018-10-11T11:56:20.839Z,896
2018-10-11T11:57:22.242Z,904
2018-10-11T11:58:23.719Z,884
2018-10-11T11:59:25.122Z,856
2018-10-11T12:00:26.527Z,832
2018-10-11T12:01:28.036Z,804
2018-10-11T12:02:29.460Z,756
2018-10-11T12:03:30.854Z,720
2018-10-11T12:04:33.391Z,700
2018-10-11T12:05:34.792Z,728
2018-10-11T12:06:36.195Z,732
2018-10-11T12:07:37.616Z,704
2018-10-11T12:08:39.037Z,676
2018-10-11T12:09:40.432Z,668
2018-10-11T12:10:42.042Z,696
2018-10-11T12:11:43.431Z,700
2018-10-11T12:12:44.909Z,736
2018-10-11T12:13:46.319Z,780
2018-10-11T12:14:47.721Z,848
2018-10-11T12:15:49.238Z,892
2018-10-11T12:16:50.637Z,940
2018-10-11T12:17:52.048Z,888
2018-10-11T12:18:53.549Z,844
2018-10-11T12:19:54.960Z,748
2018-10-11T12:20:56.722Z,716
2018-10-11T12:21:58.133Z,716
2018-10-11T12:22:59.729Z,688
2018-10-11T12:24:01.131Z,688
2018-10-11T12:25:02.594Z,704
2018-10-11T12:26:04.042Z,712
2018-10-11T12:27:05.452Z,740
2018-10-11T12:28:06.859Z,712
2018-10-11T12:29:08.580Z,740
2018-10-11T12:30:09.777Z,704
2018-10-11T12:31:11.181Z,656
2018-10-11T12:32:12.686Z,644
2018-10-11T12:33:14.095Z,624
2018-10-11T12:34:15.882Z,596
2018-10-11T12:35:17.419Z,536
2018-10-11T12:36:18.848Z,536
2018-10-11T12:37:20.231Z,572
2018-10-11T12:38:21.739Z,636
2018-10-11T12:39:23.151Z,780
2018-10-11T12:40:24.559Z,944
2018-10-11T12:41:26.061Z,1032
2018-10-11T12:42:27.517Z,1076
2018-10-11T12:43:28.874Z,1016
2018-10-11T12:44:30.766Z,1008
2018-10-11T12:45:32.175Z,1052
2018-10-11T12:46:38.913Z,1080
2018-10-11T12:47:35.118Z,1132
2018-10-11T12:48:36.556Z,1188
2018-10-11T12:49:41.642Z,1152
2018-10-11T12:50:39.326Z,1080
2018-10-11T12:51:40.889Z,1032
2018-10-11T12:52:42.291Z,1000
2018-10-11T12:53:46.080Z,1020
2018-10-11T12:54:45.199Z,1056
2018-10-11T12:55:46.608Z,1108
2018-10-11T12:56:48.153Z,1052
2018-10-11T12:57:49.529Z,1036
2018-10-11T12:58:50.942Z,1024
2018-10-11T12:59:52.345Z,992
2018-10-11T13:00:53.920Z,1004
2018-10-11T13:01:55.263Z,1016
2018-10-11T13:02:56.877Z,1032
2018-10-11T13:03:58.130Z,1048
2018-10-11T13:04:59.605Z,1092
2018-10-11T13:06:01.012Z,1140
2018-10-11T13:07:02.484Z,1176
2018-10-11T13:08:03.926Z,1192
2018-10-11T13:09:05.366Z,1224
2018-10-11T13:10:06.807Z,1244
2018-10-11T13:11:08.247Z,1232
2018-10-11T13:12:09.654Z,1192
2018-10-11T13:13:11.295Z,1088
2018-10-11T13:14:12.538Z,952
2018-10-11T13:15:14.295Z,816
2018-10-11T13:16:15.417Z,760
2018-10-11T13:17:17.272Z,724
2018-10-11T13:18:18.677Z,708
2018-10-11T13:19:20.179Z,696
2018-10-11T13:20:21.876Z,676
2018-10-11T13:21:23.469Z,660
2018-10-11T13:22:24.880Z,644
2018-10-11T13:23:26.343Z,612
2018-10-11T13:24:27.985Z,584
2018-10-11T13:25:29.436Z,556
2018-10-11T13:26:31.013Z,512
2018-10-11T13:27:32.525Z,472
2018-10-11T13:28:33.927Z,468
2018-10-11T13:29:35.405Z,452
2018-10-11T13:30:36.809Z,428
2018-10-11T13:31:38.284Z,456
2018-10-11T13:32:39.687Z,448
2018-10-11T13:33:41.165Z,440
2018-10-11T13:34:42.620Z,428
2018-10-11T13:35:43.975Z,400
2018-10-11T13:36:45.891Z,392
2018-10-11T13:37:47.302Z,392
2018-10-11T13:38:48.704Z,408
2018-10-11T13:39:54.791Z,364
2018-10-11T13:40:55.072Z,368
2018-10-11T13:41:53.139Z,376
2018-10-11T13:42:54.505Z,376
2018-10-11T13:43:55.980Z,368
2018-10-11T13:44:57.388Z,332
2018-10-11T13:46:01.202Z,332
2018-10-11T13:47:00.302Z,352
2018-10-11T13:48:01.709Z,368
2018-10-11T13:49:04.695Z,388
2018-10-11T13:50:06.262Z,376
2018-10-11T13:51:07.668Z,384
2018-10-11T13:52:13.191Z,400
2018-10-11T13:53:11.765Z,428
2018-10-11T13:54:13.270Z,484
2018-10-11T13:55:15.712Z,520
2018-10-11T13:56:16.133Z,576
2018-10-11T13:57:17.540Z,608
2018-10-11T13:58:20.586Z,636
2018-10-11T13:59:22.177Z,624
2018-10-11T14:00:23.588Z,600
2018-10-11T14:01:25.367Z,584
2018-10-11T14:02:26.824Z,540
2018-10-11T14:03:28.232Z,472
2018-10-11T14:04:29.659Z,420
2018-10-11T14:05:31.149Z,388
2018-10-11T14:06:32.636Z,372
2018-10-11T14:07:34.042Z,364
2018-10-11T14:08:35.554Z,380
2018-10-11T14:09:37.258Z,404
2018-10-11T14:10:38.727Z,432
2018-10-11T14:11:40.283Z,488
2018-10-11T14:12:41.688Z,572
2018-10-11T14:13:43.284Z,648
2018-10-11T14:14:44.696Z,704
2018-10-11T14:15:46.167Z,708
2018-10-11T14:16:47.577Z,664
2018-10-11T14:17:49.115Z,584
2018-10-11T14:18:50.488Z,528
2018-10-11T14:19:51.920Z,492
2018-10-11T14:20:53.432Z,468
2018-10-11T14:21:55.014Z,484
2018-10-11T14:22:56.418Z,508
2018-10-11T14:23:57.911Z,520
2018-10-11T14:24:59.298Z,548
2018-10-11T14:26:00.706Z,536
2018-10-11T14:27:02.218Z,512